sensor_id;sensor_type;location;lat;lon;timestamp;P1;durP1;ratioP1;P2;durP2;ratioP2
75793;SDS011;64418;47.536;19.074;2022-10-31T00:00:41;46.10;;;19.80;;
75793;SDS011;64418;47.536;19.074;2022-10-31T00:03:07;45.87;;;21.07;;
75793;SDS011;64418;47.536;19.074;2022-10-31T00:05:32;46.40;;;20.67;;
75793;SDS011;64418;47.536;19.074;2022-10-31T00:08:00;47.00;;;20.47;;
75793;SDS011;64418;47.536;19.074;2022-10-31T00:10:25;49.00;;;20.73;;
75793;SDS011;64418;47.536;19.074;2022-10-31T00:12:51;48.95;;;21.25;;
75793;SDS011;64418;47.536;19.074;2022-10-31T00:15:17;48.27;;;20.90;;
75793;SDS011;64418;47.536;19.074;2022-10-31T00:17:42;44.42;;;19.85;;
75793;SDS011;64418;47.536;19.074;2022-10-31T00:20:08;55.33;;;21.57;;
75793;SDS011;64418;47.536;19.074;2022-10-31T00:22:34;46.28;;;21.08;;
75793;SDS011;64418;47.536;19.074;2022-10-31T00:25:01;54.03;;;21.62;;
75793;SDS011;64418;47.536;19.074;2022-10-31T00:27:27;49.63;;;21.37;;
75793;SDS011;64418;47.536;19.074;2022-10-31T00:29:53;53.90;;;21.75;;
75793;SDS011;64418;47.536;19.074;2022-10-31T00:32:19;54.07;;;21.80;;
75793;SDS011;64418;47.536;19.074;2022-10-31T00:34:45;49.03;;;21.05;;
75793;SDS011;64418;47.536;19.074;2022-10-31T00:37:10;52.67;;;21.92;;
75793;SDS011;64418;47.536;19.074;2022-10-31T00:39:36;51.47;;;20.37;;
75793;SDS011;64418;47.536;19.074;2022-10-31T00:42:03;61.83;;;23.95;;
75793;SDS011;64418;47.536;19.074;2022-10-31T00:44:29;47.50;;;20.50;;
75793;SDS011;64418;47.536;19.074;2022-10-31T00:46:55;57.77;;;23.00;;
75793;SDS011;64418;47.536;19.074;2022-10-31T00:49:20;56.15;;;24.33;;
75793;SDS011;64418;47.536;19.074;2022-10-31T00:51:46;53.20;;;22.13;;
75793;SDS011;64418;47.536;19.074;2022-10-31T00:54:12;56.03;;;22.08;;
75793;SDS011;64418;47.536;19.074;2022-10-31T00:56:38;50.30;;;21.50;;
75793;SDS011;64418;47.536;19.074;2022-10-31T00:59:05;62.83;;;23.65;;
75793;SDS011;64418;47.536;19.074;2022-10-31T01:01:31;56.25;;;22.33;;
75793;SDS011;64418;47.536;19.074;2022-10-31T01:03:57;65.10;;;22.60;;
75793;SDS011;64418;47.536;19.074;2022-10-31T01:06:22;55.90;;;23.03;;
75793;SDS011;64418;47.536;19.074;2022-10-31T01:08:48;54.45;;;22.02;;
75793;SDS011;64418;47.536;19.074;2022-10-31T01:11:15;56.60;;;23.47;;
75793;SDS011;64418;47.536;19.074;2022-10-31T01:13:42;65.28;;;23.23;;
75793;SDS011;64418;47.536;19.074;2022-10-31T01:16:10;62.42;;;24.27;;
75793;SDS011;64418;47.536;19.074;2022-10-31T01:18:37;57.62;;;23.27;;
75793;SDS011;64418;47.536;19.074;2022-10-31T01:21:04;60.03;;;23.87;;
75793;SDS011;64418;47.536;19.074;2022-10-31T01:23:31;56.37;;;22.07;;
75793;SDS011;64418;47.536;19.074;2022-10-31T01:25:59;59.67;;;22.90;;
75793;SDS011;64418;47.536;19.074;2022-10-31T01:28:25;54.78;;;22.77;;
75793;SDS011;64418;47.536;19.074;2022-10-31T01:30:51;56.40;;;22.92;;
75793;SDS011;64418;47.536;19.074;2022-10-31T01:33:18;56.47;;;22.97;;
75793;SDS011;64418;47.536;19.074;2022-10-31T01:35:44;58.30;;;22.98;;
75793;SDS011;64418;47.536;19.074;2022-10-31T01:38:10;59.15;;;22.10;;
75793;SDS011;64418;47.536;19.074;2022-10-31T01:40:36;57.67;;;23.67;;
75793;SDS011;64418;47.536;19.074;2022-10-31T01:43:01;61.70;;;23.17;;
75793;SDS011;64418;47.536;19.074;2022-10-31T01:45:27;57.57;;;22.17;;
75793;SDS011;64418;47.536;19.074;2022-10-31T01:47:53;61.28;;;22.23;;
75793;SDS011;64418;47.536;19.074;2022-10-31T01:50:26;61.70;;;23.67;;
75793;SDS011;64418;47.536;19.074;2022-10-31T01:52:56;53.45;;;21.85;;
75793;SDS011;64418;47.536;19.074;2022-10-31T01:55:26;59.60;;;23.35;;
75793;SDS011;64418;47.536;19.074;2022-10-31T01:57:57;59.42;;;21.10;;
75793;SDS011;64418;47.536;19.074;2022-10-31T02:00:27;57.53;;;23.40;;
75793;SDS011;64418;47.536;19.074;2022-10-31T02:02:53;73.47;;;24.47;;
75793;SDS011;64418;47.536;19.074;2022-10-31T02:05:20;63.50;;;22.80;;
75793;SDS011;64418;47.536;19.074;2022-10-31T02:07:51;62.30;;;23.92;;
75793;SDS011;64418;47.536;19.074;2022-10-31T02:10:20;66.47;;;22.67;;
75793;SDS011;64418;47.536;19.074;2022-10-31T02:12:48;57.97;;;22.13;;
75793;SDS011;64418;47.536;19.074;2022-10-31T02:15:15;48.55;;;20.17;;
75793;SDS011;64418;47.536;19.074;2022-10-31T02:17:41;51.35;;;19.10;;
75793;SDS011;64418;47.536;19.074;2022-10-31T02:20:12;49.57;;;19.73;;
75793;SDS011;64418;47.536;19.074;2022-10-31T02:22:43;55.22;;;20.77;;
75793;SDS011;64418;47.536;19.074;2022-10-31T02:25:50;55.92;;;21.35;;
75793;SDS011;64418;47.536;19.074;2022-10-31T02:28:34;55.88;;;20.42;;
75793;SDS011;64418;47.536;19.074;2022-10-31T02:31:22;50.67;;;19.03;;
75793;SDS011;64418;47.536;19.074;2022-10-31T02:34:00;47.92;;;18.92;;
75793;SDS011;64418;47.536;19.074;2022-10-31T02:36:36;41.33;;;17.12;;
75793;SDS011;64418;47.536;19.074;2022-10-31T02:39:10;37.30;;;15.93;;
75793;SDS011;64418;47.536;19.074;2022-10-31T02:41:45;38.78;;;15.82;;
75793;SDS011;64418;47.536;19.074;2022-10-31T02:44:16;40.17;;;15.80;;
75793;SDS011;64418;47.536;19.074;2022-10-31T02:46:50;37.88;;;14.52;;
75793;SDS011;64418;47.536;19.074;2022-10-31T02:49:22;33.15;;;14.40;;
75793;SDS011;64418;47.536;19.074;2022-10-31T02:51:53;26.10;;;12.88;;
75793;SDS011;64418;47.536;19.074;2022-10-31T02:54:19;28.70;;;13.82;;
75793;SDS011;64418;47.536;19.074;2022-10-31T02:56:47;25.30;;;12.90;;
75793;SDS011;64418;47.536;19.074;2022-10-31T02:59:16;23.98;;;11.60;;
75793;SDS011;64418;47.536;19.074;2022-10-31T03:01:52;25.12;;;12.52;;
75793;SDS011;64418;47.536;19.074;2022-10-31T03:04:51;32.47;;;12.18;;
75793;SDS011;64418;47.536;19.074;2022-10-31T03:07:38;28.23;;;13.02;;
75793;SDS011;64418;47.536;19.074;2022-10-31T03:10:14;27.60;;;12.93;;
75793;SDS011;64418;47.536;19.074;2022-10-31T03:12:47;27.23;;;12.73;;
75793;SDS011;64418;47.536;19.074;2022-10-31T03:15:21;28.50;;;13.00;;
75793;SDS011;64418;47.536;19.074;2022-10-31T03:17:54;26.23;;;13.25;;
75793;SDS011;64418;47.536;19.074;2022-10-31T03:20:26;30.12;;;14.40;;
75793;SDS011;64418;47.536;19.074;2022-10-31T03:22:55;29.63;;;13.50;;
75793;SDS011;64418;47.536;19.074;2022-10-31T03:25:22;30.90;;;13.62;;
75793;SDS011;64418;47.536;19.074;2022-10-31T03:27:48;31.77;;;13.13;;
75793;SDS011;64418;47.536;19.074;2022-10-31T03:30:16;29.05;;;13.50;;
75793;SDS011;64418;47.536;19.074;2022-10-31T03:32:42;30.67;;;14.27;;
75793;SDS011;64418;47.536;19.074;2022-10-31T03:35:13;25.65;;;13.02;;
75793;SDS011;64418;47.536;19.074;2022-10-31T03:37:42;28.45;;;13.43;;
75793;SDS011;64418;47.536;19.074;2022-10-31T03:40:09;26.60;;;13.48;;
75793;SDS011;64418;47.536;19.074;2022-10-31T03:42:40;29.73;;;12.55;;
75793;SDS011;64418;47.536;19.074;2022-10-31T03:45:10;27.10;;;12.43;;
75793;SDS011;64418;47.536;19.074;2022-10-31T03:47:39;25.60;;;12.13;;
75793;SDS011;64418;47.536;19.074;2022-10-31T03:50:07;25.70;;;12.45;;
75793;SDS011;64418;47.536;19.074;2022-10-31T03:52:37;24.70;;;11.32;;
75793;SDS011;64418;47.536;19.074;2022-10-31T03:55:09;25.37;;;11.93;;
75793;SDS011;64418;47.536;19.074;2022-10-31T03:57:38;27.97;;;12.60;;
75793;SDS011;64418;47.536;19.074;2022-10-31T04:00:09;26.67;;;11.50;;
75793;SDS011;64418;47.536;19.074;2022-10-31T04:02:38;23.58;;;11.77;;
75793;SDS011;64418;47.536;19.074;2022-10-31T04:05:07;26.20;;;12.25;;
75793;SDS011;64418;47.536;19.074;2022-10-31T04:07:39;24.75;;;11.55;;
75793;SDS011;64418;47.536;19.074;2022-10-31T04:10:10;25.37;;;11.83;;
75793;SDS011;64418;47.536;19.074;2022-10-31T04:12:38;29.27;;;12.75;;
75793;SDS011;64418;47.536;19.074;2022-10-31T04:15:05;25.95;;;12.73;;
75793;SDS011;64418;47.536;19.074;2022-10-31T04:17:34;26.17;;;11.95;;
75793;SDS011;64418;47.536;19.074;2022-10-31T04:20:04;24.40;;;11.52;;
75793;SDS011;64418;47.536;19.074;2022-10-31T04:22:31;25.07;;;11.50;;
75793;SDS011;64418;47.536;19.074;2022-10-31T04:24:58;26.52;;;12.52;;
75793;SDS011;64418;47.536;19.074;2022-10-31T04:27:23;23.65;;;11.85;;
75793;SDS011;64418;47.536;19.074;2022-10-31T04:29:49;25.60;;;12.00;;
75793;SDS011;64418;47.536;19.074;2022-10-31T04:32:14;25.50;;;12.10;;
75793;SDS011;64418;47.536;19.074;2022-10-31T04:34:40;23.90;;;11.17;;
75793;SDS011;64418;47.536;19.074;2022-10-31T04:37:06;22.27;;;10.77;;
75793;SDS011;64418;47.536;19.074;2022-10-31T04:39:33;20.75;;;11.23;;
75793;SDS011;64418;47.536;19.074;2022-10-31T04:42:00;21.87;;;11.03;;
75793;SDS011;64418;47.536;19.074;2022-10-31T04:44:26;23.48;;;11.38;;
75793;SDS011;64418;47.536;19.074;2022-10-31T04:46:51;24.17;;;11.70;;
75793;SDS011;64418;47.536;19.074;2022-10-31T04:49:17;27.90;;;12.23;;
75793;SDS011;64418;47.536;19.074;2022-10-31T04:51:43;27.20;;;13.00;;
75793;SDS011;64418;47.536;19.074;2022-10-31T04:54:08;26.63;;;13.47;;
75793;SDS011;64418;47.536;19.074;2022-10-31T04:56:34;30.85;;;13.20;;
75793;SDS011;64418;47.536;19.074;2022-10-31T04:59:01;28.20;;;13.23;;
75793;SDS011;64418;47.536;19.074;2022-10-31T05:01:27;32.30;;;12.77;;
75793;SDS011;64418;47.536;19.074;2022-10-31T05:03:53;29.47;;;13.87;;
75793;SDS011;64418;47.536;19.074;2022-10-31T05:06:18;29.85;;;12.98;;
75793;SDS011;64418;47.536;19.074;2022-10-31T05:08:44;31.23;;;13.73;;
75793;SDS011;64418;47.536;19.074;2022-10-31T05:11:09;34.47;;;13.55;;
75793;SDS011;64418;47.536;19.074;2022-10-31T05:13:35;30.50;;;13.17;;
75793;SDS011;64418;47.536;19.074;2022-10-31T05:16:02;34.50;;;13.60;;
75793;SDS011;64418;47.536;19.074;2022-10-31T05:18:28;33.50;;;14.97;;
75793;SDS011;64418;47.536;19.074;2022-10-31T05:20:53;32.28;;;13.95;;
75793;SDS011;64418;47.536;19.074;2022-10-31T05:23:19;29.63;;;13.90;;
75793;SDS011;64418;47.536;19.074;2022-10-31T05:25:45;29.73;;;13.18;;
75793;SDS011;64418;47.536;19.074;2022-10-31T05:28:11;32.93;;;14.00;;
75793;SDS011;64418;47.536;19.074;2022-10-31T05:30:37;32.28;;;13.75;;
75793;SDS011;64418;47.536;19.074;2022-10-31T05:33:04;29.40;;;13.15;;
75793;SDS011;64418;47.536;19.074;2022-10-31T05:35:30;29.50;;;13.57;;
75793;SDS011;64418;47.536;19.074;2022-10-31T05:37:57;29.33;;;13.55;;
75793;SDS011;64418;47.536;19.074;2022-10-31T05:40:24;32.28;;;13.82;;
75793;SDS011;64418;47.536;19.074;2022-10-31T05:42:52;27.55;;;13.05;;
75793;SDS011;64418;47.536;19.074;2022-10-31T05:45:20;28.05;;;13.40;;
75793;SDS011;64418;47.536;19.074;2022-10-31T05:47:50;33.47;;;13.90;;
75793;SDS011;64418;47.536;19.074;2022-10-31T05:50:17;29.23;;;12.52;;
75793;SDS011;64418;47.536;19.074;2022-10-31T05:52:45;32.15;;;13.55;;
75793;SDS011;64418;47.536;19.074;2022-10-31T05:55:11;30.83;;;13.27;;
75793;SDS011;64418;47.536;19.074;2022-10-31T05:57:38;33.70;;;14.60;;
75793;SDS011;64418;47.536;19.074;2022-10-31T06:00:04;31.33;;;13.03;;
75793;SDS011;64418;47.536;19.074;2022-10-31T06:02:30;33.65;;;14.02;;
75793;SDS011;64418;47.536;19.074;2022-10-31T06:04:57;36.92;;;15.40;;
75793;SDS011;64418;47.536;19.074;2022-10-31T06:07:24;31.43;;;12.63;;
75793;SDS011;64418;47.536;19.074;2022-10-31T06:09:49;26.85;;;12.30;;
75793;SDS011;64418;47.536;19.074;2022-10-31T06:12:15;33.07;;;13.87;;
75793;SDS011;64418;47.536;19.074;2022-10-31T06:14:41;36.00;;;13.93;;
75793;SDS011;64418;47.536;19.074;2022-10-31T06:17:06;31.30;;;12.70;;
75793;SDS011;64418;47.536;19.074;2022-10-31T06:19:32;31.42;;;13.05;;
75793;SDS011;64418;47.536;19.074;2022-10-31T06:21:58;27.60;;;12.13;;
75793;SDS011;64418;47.536;19.074;2022-10-31T06:24:25;30.30;;;12.40;;
75793;SDS011;64418;47.536;19.074;2022-10-31T06:26:50;33.88;;;13.50;;
75793;SDS011;64418;47.536;19.074;2022-10-31T06:29:16;29.83;;;13.20;;
75793;SDS011;64418;47.536;19.074;2022-10-31T06:31:42;28.93;;;12.40;;
75793;SDS011;64418;47.536;19.074;2022-10-31T06:34:08;26.65;;;11.38;;
75793;SDS011;64418;47.536;19.074;2022-10-31T06:36:33;25.10;;;11.30;;
75793;SDS011;64418;47.536;19.074;2022-10-31T06:38:59;27.70;;;12.15;;
75793;SDS011;64418;47.536;19.074;2022-10-31T06:41:27;27.23;;;11.53;;
75793;SDS011;64418;47.536;19.074;2022-10-31T06:43:52;29.58;;;12.60;;
75793;SDS011;64418;47.536;19.074;2022-10-31T06:46:18;32.35;;;12.20;;
75793;SDS011;64418;47.536;19.074;2022-10-31T06:48:44;28.30;;;12.60;;
75793;SDS011;64418;47.536;19.074;2022-10-31T06:51:09;28.65;;;12.60;;
75793;SDS011;64418;47.536;19.074;2022-10-31T06:53:35;30.57;;;11.57;;
75793;SDS011;64418;47.536;19.074;2022-10-31T06:56:01;27.93;;;11.40;;
75793;SDS011;64418;47.536;19.074;2022-10-31T06:58:29;25.58;;;11.70;;
75793;SDS011;64418;47.536;19.074;2022-10-31T07:00:58;25.62;;;11.90;;
75793;SDS011;64418;47.536;19.074;2022-10-31T07:03:24;25.05;;;11.15;;
75793;SDS011;64418;47.536;19.074;2022-10-31T07:05:50;22.50;;;10.47;;
75793;SDS011;64418;47.536;19.074;2022-10-31T07:08:15;23.60;;;11.27;;
75793;SDS011;64418;47.536;19.074;2022-10-31T07:10:41;23.97;;;10.60;;
75793;SDS011;64418;47.536;19.074;2022-10-31T07:13:11;28.05;;;11.70;;
75793;SDS011;64418;47.536;19.074;2022-10-31T07:15:39;26.33;;;11.55;;
75793;SDS011;64418;47.536;19.074;2022-10-31T07:18:06;24.08;;;11.25;;
75793;SDS011;64418;47.536;19.074;2022-10-31T07:20:34;25.98;;;10.50;;
75793;SDS011;64418;47.536;19.074;2022-10-31T07:23:00;25.40;;;10.60;;
75793;SDS011;64418;47.536;19.074;2022-10-31T07:25:25;26.30;;;10.63;;
75793;SDS011;64418;47.536;19.074;2022-10-31T07:27:52;21.95;;;10.68;;
75793;SDS011;64418;47.536;19.074;2022-10-31T07:30:17;24.23;;;10.27;;
75793;SDS011;64418;47.536;19.074;2022-10-31T07:32:45;26.08;;;12.00;;
75793;SDS011;64418;47.536;19.074;2022-10-31T07:35:14;24.02;;;10.95;;
75793;SDS011;64418;47.536;19.074;2022-10-31T07:37:40;27.10;;;11.10;;
75793;SDS011;64418;47.536;19.074;2022-10-31T07:40:07;23.80;;;10.90;;
75793;SDS011;64418;47.536;19.074;2022-10-31T07:42:34;25.05;;;11.48;;
75793;SDS011;64418;47.536;19.074;2022-10-31T07:45:00;29.90;;;12.23;;
75793;SDS011;64418;47.536;19.074;2022-10-31T07:47:25;27.27;;;12.50;;
75793;SDS011;64418;47.536;19.074;2022-10-31T07:49:52;23.62;;;11.25;;
75793;SDS011;64418;47.536;19.074;2022-10-31T07:52:18;26.17;;;11.48;;
75793;SDS011;64418;47.536;19.074;2022-10-31T07:54:44;22.70;;;10.47;;
75793;SDS011;64418;47.536;19.074;2022-10-31T07:57:09;21.03;;;10.33;;
75793;SDS011;64418;47.536;19.074;2022-10-31T07:59:35;23.23;;;10.40;;
75793;SDS011;64418;47.536;19.074;2022-10-31T08:02:01;24.17;;;11.00;;
75793;SDS011;64418;47.536;19.074;2022-10-31T08:04:27;22.47;;;10.37;;
75793;SDS011;64418;47.536;19.074;2022-10-31T08:06:54;20.00;;;10.73;;
75793;SDS011;64418;47.536;19.074;2022-10-31T08:09:20;24.02;;;10.93;;
75793;SDS011;64418;47.536;19.074;2022-10-31T08:11:45;23.27;;;10.53;;
75793;SDS011;64418;47.536;19.074;2022-10-31T08:14:11;27.43;;;11.53;;
75793;SDS011;64418;47.536;19.074;2022-10-31T08:16:36;25.00;;;10.52;;
75793;SDS011;64418;47.536;19.074;2022-10-31T08:19:02;25.80;;;10.10;;
75793;SDS011;64418;47.536;19.074;2022-10-31T08:21:28;23.05;;;10.13;;
75793;SDS011;64418;47.536;19.074;2022-10-31T08:23:55;22.37;;;10.70;;
75793;SDS011;64418;47.536;19.074;2022-10-31T08:26:20;26.27;;;10.93;;
75793;SDS011;64418;47.536;19.074;2022-10-31T08:28:46;24.90;;;11.02;;
75793;SDS011;64418;47.536;19.074;2022-10-31T08:31:11;23.70;;;10.70;;
75793;SDS011;64418;47.536;19.074;2022-10-31T08:33:37;27.90;;;11.67;;
75793;SDS011;64418;47.536;19.074;2022-10-31T08:36:03;25.35;;;11.57;;
75793;SDS011;64418;47.536;19.074;2022-10-31T08:38:28;28.60;;;12.40;;
75793;SDS011;64418;47.536;19.074;2022-10-31T08:40:55;26.67;;;11.47;;
75793;SDS011;64418;47.536;19.074;2022-10-31T08:43:21;24.85;;;11.05;;
75793;SDS011;64418;47.536;19.074;2022-10-31T08:45:47;24.52;;;11.30;;
75793;SDS011;64418;47.536;19.074;2022-10-31T08:48:15;26.23;;;11.45;;
75793;SDS011;64418;47.536;19.074;2022-10-31T08:50:42;29.10;;;12.03;;
75793;SDS011;64418;47.536;19.074;2022-10-31T08:53:10;28.20;;;11.90;;
75793;SDS011;64418;47.536;19.074;2022-10-31T08:55:37;27.65;;;12.18;;
75793;SDS011;64418;47.536;19.074;2022-10-31T08:58:06;28.15;;;12.63;;
75793;SDS011;64418;47.536;19.074;2022-10-31T09:00:34;29.98;;;12.85;;
75793;SDS011;64418;47.536;19.074;2022-10-31T09:03:00;28.80;;;13.50;;
75793;SDS011;64418;47.536;19.074;2022-10-31T09:05:28;30.85;;;12.52;;
75793;SDS011;64418;47.536;19.074;2022-10-31T09:07:55;30.23;;;12.68;;
75793;SDS011;64418;47.536;19.074;2022-10-31T09:10:21;33.42;;;12.73;;
75793;SDS011;64418;47.536;19.074;2022-10-31T09:12:46;28.90;;;12.70;;
75793;SDS011;64418;47.536;19.074;2022-10-31T09:15:14;28.52;;;12.52;;
75793;SDS011;64418;47.536;19.074;2022-10-31T09:17:45;32.80;;;13.87;;
75793;SDS011;64418;47.536;19.074;2022-10-31T09:20:11;29.98;;;12.90;;
75793;SDS011;64418;47.536;19.074;2022-10-31T09:22:37;33.15;;;13.45;;
75793;SDS011;64418;47.536;19.074;2022-10-31T09:25:03;37.80;;;14.60;;
75793;SDS011;64418;47.536;19.074;2022-10-31T09:27:29;34.10;;;13.88;;
75793;SDS011;64418;47.536;19.074;2022-10-31T09:29:55;34.00;;;14.50;;
75793;SDS011;64418;47.536;19.074;2022-10-31T09:32:21;37.53;;;15.10;;
75793;SDS011;64418;47.536;19.074;2022-10-31T09:34:47;37.95;;;15.23;;
75793;SDS011;64418;47.536;19.074;2022-10-31T09:37:13;34.70;;;15.03;;
75793;SDS011;64418;47.536;19.074;2022-10-31T09:39:38;39.30;;;14.90;;
75793;SDS011;64418;47.536;19.074;2022-10-31T09:42:07;37.60;;;15.53;;
75793;SDS011;64418;47.536;19.074;2022-10-31T09:44:49;34.93;;;15.00;;
75793;SDS011;64418;47.536;19.074;2022-10-31T09:47:26;40.65;;;15.43;;
75793;SDS011;64418;47.536;19.074;2022-10-31T09:50:07;38.53;;;14.80;;
75793;SDS011;64418;47.536;19.074;2022-10-31T09:52:43;40.38;;;15.68;;
75793;SDS011;64418;47.536;19.074;2022-10-31T09:55:18;38.92;;;15.60;;
75793;SDS011;64418;47.536;19.074;2022-10-31T09:57:50;46.93;;;17.57;;
75793;SDS011;64418;47.536;19.074;2022-10-31T10:00:16;42.20;;;16.08;;
75793;SDS011;64418;47.536;19.074;2022-10-31T10:02:46;40.60;;;16.00;;
75793;SDS011;64418;47.536;19.074;2022-10-31T10:05:17;42.03;;;16.17;;
75793;SDS011;64418;47.536;19.074;2022-10-31T10:07:48;39.45;;;16.30;;
75793;SDS011;64418;47.536;19.074;2022-10-31T10:10:22;38.53;;;15.60;;
75793;SDS011;64418;47.536;19.074;2022-10-31T10:15:59;34.30;;;14.55;;
75793;SDS011;64418;47.536;19.074;2022-10-31T10:18:36;43.20;;;15.37;;
75793;SDS011;64418;47.536;19.074;2022-10-31T10:21:11;38.00;;;15.55;;
75793;SDS011;64418;47.536;19.074;2022-10-31T10:23:51;39.47;;;14.87;;
75793;SDS011;64418;47.536;19.074;2022-10-31T10:26:28;39.75;;;15.88;;
75793;SDS011;64418;47.536;19.074;2022-10-31T10:29:01;37.72;;;15.98;;
75793;SDS011;64418;47.536;19.074;2022-10-31T10:31:37;40.03;;;15.73;;
75793;SDS011;64418;47.536;19.074;2022-10-31T10:34:07;38.75;;;15.27;;
75793;SDS011;64418;47.536;19.074;2022-10-31T10:36:42;37.53;;;16.35;;
75793;SDS011;64418;47.536;19.074;2022-10-31T10:39:14;38.33;;;14.00;;
75793;SDS011;64418;47.536;19.074;2022-10-31T10:41:45;36.33;;;15.13;;
75793;SDS011;64418;47.536;19.074;2022-10-31T10:44:13;34.37;;;14.10;;
75793;SDS011;64418;47.536;19.074;2022-10-31T10:46:40;32.75;;;14.20;;
75793;SDS011;64418;47.536;19.074;2022-10-31T10:49:12;35.45;;;14.80;;
75793;SDS011;64418;47.536;19.074;2022-10-31T10:51:44;34.87;;;14.83;;
75793;SDS011;64418;47.536;19.074;2022-10-31T10:54:15;38.72;;;15.23;;
75793;SDS011;64418;47.536;19.074;2022-10-31T10:57:07;37.47;;;15.93;;
75793;SDS011;64418;47.536;19.074;2022-10-31T10:59:41;33.13;;;13.62;;
75793;SDS011;64418;47.536;19.074;2022-10-31T11:02:17;36.92;;;14.50;;
75793;SDS011;64418;47.536;19.074;2022-10-31T11:04:47;36.10;;;14.50;;
75793;SDS011;64418;47.536;19.074;2022-10-31T11:07:16;35.17;;;14.38;;
75793;SDS011;64418;47.536;19.074;2022-10-31T11:09:42;33.35;;;14.38;;
75793;SDS011;64418;47.536;19.074;2022-10-31T11:12:08;35.33;;;14.30;;
75793;SDS011;64418;47.536;19.074;2022-10-31T11:14:36;36.28;;;14.82;;
75793;SDS011;64418;47.536;19.074;2022-10-31T11:17:14;37.05;;;15.55;;
75793;SDS011;64418;47.536;19.074;2022-10-31T11:22:48;30.73;;;12.83;;
75793;SDS011;64418;47.536;19.074;2022-10-31T11:25:20;36.90;;;14.40;;
75793;SDS011;64418;47.536;19.074;2022-10-31T11:27:47;34.38;;;14.48;;
75793;SDS011;64418;47.536;19.074;2022-10-31T11:30:24;33.75;;;14.68;;
75793;SDS011;64418;47.536;19.074;2022-10-31T11:32:50;37.83;;;15.20;;
75793;SDS011;64418;47.536;19.074;2022-10-31T11:35:16;35.22;;;15.10;;
75793;SDS011;64418;47.536;19.074;2022-10-31T11:37:47;32.63;;;14.15;;
75793;SDS011;64418;47.536;19.074;2022-10-31T11:40:15;30.17;;;14.32;;
75793;SDS011;64418;47.536;19.074;2022-10-31T11:42:43;31.07;;;13.80;;
75793;SDS011;64418;47.536;19.074;2022-10-31T11:45:13;34.42;;;14.15;;
75793;SDS011;64418;47.536;19.074;2022-10-31T11:47:41;33.80;;;14.13;;
75793;SDS011;64418;47.536;19.074;2022-10-31T11:50:15;28.38;;;12.60;;
75793;SDS011;64418;47.536;19.074;2022-10-31T11:52:47;31.23;;;13.57;;
75793;SDS011;64418;47.536;19.074;2022-10-31T11:55:15;32.97;;;13.00;;
75793;SDS011;64418;47.536;19.074;2022-10-31T11:57:51;29.08;;;13.62;;
75793;SDS011;64418;47.536;19.074;2022-10-31T12:00:22;25.25;;;12.82;;
75793;SDS011;64418;47.536;19.074;2022-10-31T12:02:50;29.12;;;12.57;;
75793;SDS011;64418;47.536;19.074;2022-10-31T12:05:17;30.98;;;13.57;;
75793;SDS011;64418;47.536;19.074;2022-10-31T12:07:48;25.00;;;12.57;;
75793;SDS011;64418;47.536;19.074;2022-10-31T12:10:14;26.70;;;12.95;;
75793;SDS011;64418;47.536;19.074;2022-10-31T12:12:50;29.00;;;13.20;;
75793;SDS011;64418;47.536;19.074;2022-10-31T12:15:27;27.17;;;12.68;;
75793;SDS011;64418;47.536;19.074;2022-10-31T12:18:02;28.55;;;12.00;;
75793;SDS011;64418;47.536;19.074;2022-10-31T12:20:48;25.50;;;12.63;;
75793;SDS011;64418;47.536;19.074;2022-10-31T12:23:23;28.92;;;12.57;;
75793;SDS011;64418;47.536;19.074;2022-10-31T12:25:58;27.20;;;12.45;;
75793;SDS011;64418;47.536;19.074;2022-10-31T12:28:43;27.08;;;12.37;;
75793;SDS011;64418;47.536;19.074;2022-10-31T12:31:22;25.55;;;11.88;;
75793;SDS011;64418;47.536;19.074;2022-10-31T12:33:56;26.13;;;12.17;;
75793;SDS011;64418;47.536;19.074;2022-10-31T12:36:41;28.70;;;13.35;;
75793;SDS011;64418;47.536;19.074;2022-10-31T12:39:25;25.83;;;12.43;;
75793;SDS011;64418;47.536;19.074;2022-10-31T12:42:01;23.87;;;11.85;;
75793;SDS011;64418;47.536;19.074;2022-10-31T12:44:43;27.37;;;12.75;;
75793;SDS011;64418;47.536;19.074;2022-10-31T12:47:32;26.03;;;12.13;;
75793;SDS011;64418;47.536;19.074;2022-10-31T12:50:27;25.65;;;12.35;;
75793;SDS011;64418;47.536;19.074;2022-10-31T12:53:03;26.65;;;12.82;;
75793;SDS011;64418;47.536;19.074;2022-10-31T12:55:41;25.23;;;11.27;;
75793;SDS011;64418;47.536;19.074;2022-10-31T12:58:18;23.08;;;11.82;;
75793;SDS011;64418;47.536;19.074;2022-10-31T13:00:50;22.27;;;11.87;;
75793;SDS011;64418;47.536;19.074;2022-10-31T13:03:44;24.40;;;11.90;;
75793;SDS011;64418;47.536;19.074;2022-10-31T13:06:35;24.77;;;12.00;;
75793;SDS011;64418;47.536;19.074;2022-10-31T13:09:27;21.42;;;11.65;;
75793;SDS011;64418;47.536;19.074;2022-10-31T13:12:19;23.85;;;12.20;;
75793;SDS011;64418;47.536;19.074;2022-10-31T13:15:12;25.77;;;12.40;;
75793;SDS011;64418;47.536;19.074;2022-10-31T13:18:04;27.25;;;13.10;;
75793;SDS011;64418;47.536;19.074;2022-10-31T13:20:54;24.70;;;12.40;;
75793;SDS011;64418;47.536;19.074;2022-10-31T13:23:42;27.70;;;12.00;;
75793;SDS011;64418;47.536;19.074;2022-10-31T13:26:35;21.85;;;11.52;;
75793;SDS011;64418;47.536;19.074;2022-10-31T13:29:24;26.40;;;12.80;;
75793;SDS011;64418;47.536;19.074;2022-10-31T13:32:15;23.90;;;11.80;;
75793;SDS011;64418;47.536;19.074;2022-10-31T13:35:00;22.95;;;11.85;;
75793;SDS011;64418;47.536;19.074;2022-10-31T13:37:49;27.15;;;12.25;;
75793;SDS011;64418;47.536;19.074;2022-10-31T13:40:43;23.92;;;11.73;;
75793;SDS011;64418;47.536;19.074;2022-10-31T13:43:39;25.50;;;11.63;;
75793;SDS011;64418;47.536;19.074;2022-10-31T13:46:43;24.55;;;12.90;;
75793;SDS011;64418;47.536;19.074;2022-10-31T13:49:37;23.15;;;11.45;;
75793;SDS011;64418;47.536;19.074;2022-10-31T13:52:29;24.83;;;12.00;;
75793;SDS011;64418;47.536;19.074;2022-10-31T13:58:23;23.47;;;10.50;;
75793;SDS011;64418;47.536;19.074;2022-10-31T14:01:15;21.02;;;11.32;;
75793;SDS011;64418;47.536;19.074;2022-10-31T14:04:04;23.17;;;11.43;;
75793;SDS011;64418;47.536;19.074;2022-10-31T14:07:04;21.20;;;10.52;;
75793;SDS011;64418;47.536;19.074;2022-10-31T14:09:53;19.70;;;10.93;;
75793;SDS011;64418;47.536;19.074;2022-10-31T14:12:42;21.03;;;11.10;;
75793;SDS011;64418;47.536;19.074;2022-10-31T14:15:30;24.80;;;11.80;;
75793;SDS011;64418;47.536;19.074;2022-10-31T14:18:21;24.05;;;12.43;;
75793;SDS011;64418;47.536;19.074;2022-10-31T14:21:14;22.52;;;12.43;;
75793;SDS011;64418;47.536;19.074;2022-10-31T14:24:01;26.58;;;12.32;;
75793;SDS011;64418;47.536;19.074;2022-10-31T14:26:59;25.25;;;11.95;;
75793;SDS011;64418;47.536;19.074;2022-10-31T14:29:47;20.30;;;11.23;;
75793;SDS011;64418;47.536;19.074;2022-10-31T14:32:33;20.33;;;11.12;;
75793;SDS011;64418;47.536;19.074;2022-10-31T14:35:22;20.65;;;10.93;;
75793;SDS011;64418;47.536;19.074;2022-10-31T14:41:35;21.60;;;11.43;;
75793;SDS011;64418;47.536;19.074;2022-10-31T14:44:40;21.37;;;11.50;;